sensor_id;sensor_type;location;lat;lon;timestamp;P1;durP1;ratioP1;P2;durP2;ratioP2
21611;SDS011;47005;52.292;13.452;2022-10-15T00:02:12;20.92;;;14.48;;
21611;SDS011;47005;52.292;13.452;2022-10-15T00:04:37;20.55;;;14.60;;
21611;SDS011;47005;52.292;13.452;2022-10-15T00:07:03;19.60;;;14.95;;
21611;SDS011;47005;52.292;13.452;2022-10-15T00:09:28;20.30;;;13.90;;
21611;SDS011;47005;52.292;13.452;2022-10-15T00:11:54;22.95;;;13.82;;
21611;SDS011;47005;52.292;13.452;2022-10-15T00:14:20;20.02;;;13.30;;
21611;SDS011;47005;52.292;13.452;2022-10-15T00:16:45;18.45;;;14.30;;
21611;SDS011;47005;52.292;13.452;2022-10-15T00:19:11;18.30;;;12.75;;
21611;SDS011;47005;52.292;13.452;2022-10-15T00:21:36;18.13;;;13.35;;
21611;SDS011;47005;52.292;13.452;2022-10-15T00:24:02;21.77;;;13.45;;
21611;SDS011;47005;52.292;13.452;2022-10-15T00:26:29;15.25;;;11.68;;
21611;SDS011;47005;52.292;13.452;2022-10-15T00:28:58;17.73;;;13.15;;
21611;SDS011;47005;52.292;13.452;2022-10-15T00:31:26;19.38;;;13.40;;
21611;SDS011;47005;52.292;13.452;2022-10-15T00:33:54;17.77;;;12.20;;
21611;SDS011;47005;52.292;13.452;2022-10-15T00:36:23;20.83;;;13.73;;
21611;SDS011;47005;52.292;13.452;2022-10-15T00:38:50;22.77;;;13.25;;
21611;SDS011;47005;52.292;13.452;2022-10-15T00:41:18;15.85;;;12.35;;
21611;SDS011;47005;52.292;13.452;2022-10-15T00:43:49;17.73;;;12.85;;
21611;SDS011;47005;52.292;13.452;2022-10-15T00:48:58;17.20;;;11.95;;
21611;SDS011;47005;52.292;13.452;2022-10-15T00:51:32;16.52;;;12.13;;
21611;SDS011;47005;52.292;13.452;2022-10-15T00:54:03;18.08;;;11.55;;
21611;SDS011;47005;52.292;13.452;2022-10-15T00:56:29;17.38;;;11.85;;
21611;SDS011;47005;52.292;13.452;2022-10-15T00:58:56;18.52;;;12.82;;
21611;SDS011;47005;52.292;13.452;2022-10-15T01:01:22;18.48;;;12.40;;
21611;SDS011;47005;52.292;13.452;2022-10-15T01:03:49;19.95;;;12.93;;
21611;SDS011;47005;52.292;13.452;2022-10-15T01:06:16;17.02;;;11.52;;
21611;SDS011;47005;52.292;13.452;2022-10-15T01:08:42;20.85;;;12.70;;
21611;SDS011;47005;52.292;13.452;2022-10-15T01:11:54;16.65;;;12.40;;
21611;SDS011;47005;52.292;13.452;2022-10-15T01:14:01;18.85;;;12.48;;
21611;SDS011;47005;52.292;13.452;2022-10-15T01:16:44;18.90;;;11.55;;
21611;SDS011;47005;52.292;13.452;2022-10-15T01:22:00;17.23;;;12.02;;
21611;SDS011;47005;52.292;13.452;2022-10-15T01:32:27;19.17;;;13.05;;
21611;SDS011;47005;52.292;13.452;2022-10-15T01:37:39;18.77;;;12.40;;
21611;SDS011;47005;52.292;13.452;2022-10-15T01:45:31;19.85;;;12.95;;
21611;SDS011;47005;52.292;13.452;2022-10-15T01:48:02;16.35;;;12.55;;
21611;SDS011;47005;52.292;13.452;2022-10-15T01:50:42;20.58;;;13.10;;
21611;SDS011;47005;52.292;13.452;2022-10-15T01:53:10;19.60;;;12.93;;
21611;SDS011;47005;52.292;13.452;2022-10-15T01:55:40;17.60;;;12.93;;
21611;SDS011;47005;52.292;13.452;2022-10-15T01:58:07;18.45;;;12.68;;
21611;SDS011;47005;52.292;13.452;2022-10-15T02:00:35;16.92;;;11.70;;
21611;SDS011;47005;52.292;13.452;2022-10-15T02:03:02;18.98;;;12.02;;
21611;SDS011;47005;52.292;13.452;2022-10-15T02:05:30;19.33;;;12.35;;
21611;SDS011;47005;52.292;13.452;2022-10-15T02:10:59;18.38;;;12.70;;
21611;SDS011;47005;52.292;13.452;2022-10-15T02:13:31;15.57;;;11.23;;
21611;SDS011;47005;52.292;13.452;2022-10-15T02:16:05;20.20;;;12.55;;
21611;SDS011;47005;52.292;13.452;2022-10-15T02:18:38;19.40;;;12.00;;
21611;SDS011;47005;52.292;13.452;2022-10-15T02:21:16;20.23;;;12.15;;
21611;SDS011;47005;52.292;13.452;2022-10-15T02:26:26;18.20;;;12.68;;
21611;SDS011;47005;52.292;13.452;2022-10-15T02:28:55;21.27;;;14.02;;
21611;SDS011;47005;52.292;13.452;2022-10-15T02:31:23;19.98;;;12.05;;
21611;SDS011;47005;52.292;13.452;2022-10-15T02:33:54;22.08;;;13.00;;
21611;SDS011;47005;52.292;13.452;2022-10-15T02:36:24;19.92;;;14.02;;
21611;SDS011;47005;52.292;13.452;2022-10-15T02:38:50;17.98;;;12.32;;
21611;SDS011;47005;52.292;13.452;2022-10-15T02:41:18;16.63;;;12.20;;
21611;SDS011;47005;52.292;13.452;2022-10-15T02:43:45;18.77;;;12.55;;
21611;SDS011;47005;52.292;13.452;2022-10-15T02:46:11;17.15;;;12.68;;
21611;SDS011;47005;52.292;13.452;2022-10-15T02:48:39;18.67;;;12.90;;
21611;SDS011;47005;52.292;13.452;2022-10-15T02:51:05;20.80;;;12.65;;
21611;SDS011;47005;52.292;13.452;2022-10-15T02:53:31;15.43;;;12.43;;
21611;SDS011;47005;52.292;13.452;2022-10-15T02:55:57;17.63;;;12.75;;
21611;SDS011;47005;52.292;13.452;2022-10-15T02:58:22;16.92;;;12.27;;
21611;SDS011;47005;52.292;13.452;2022-10-15T03:00:48;19.85;;;13.60;;
21611;SDS011;47005;52.292;13.452;2022-10-15T03:03:14;18.95;;;11.93;;
21611;SDS011;47005;52.292;13.452;2022-10-15T03:05:40;18.98;;;12.20;;
21611;SDS011;47005;52.292;13.452;2022-10-15T03:08:07;17.55;;;11.77;;
21611;SDS011;47005;52.292;13.452;2022-10-15T03:10:32;19.38;;;13.05;;
21611;SDS011;47005;52.292;13.452;2022-10-15T03:13:02;18.92;;;12.73;;
21611;SDS011;47005;52.292;13.452;2022-10-15T03:15:28;18.00;;;13.77;;
21611;SDS011;47005;52.292;13.452;2022-10-15T03:17:54;17.13;;;11.82;;
21611;SDS011;47005;52.292;13.452;2022-10-15T03:20:19;18.67;;;12.45;;
21611;SDS011;47005;52.292;13.452;2022-10-15T03:22:45;18.90;;;12.63;;
21611;SDS011;47005;52.292;13.452;2022-10-15T03:25:11;14.68;;;11.90;;
21611;SDS011;47005;52.292;13.452;2022-10-15T03:27:36;17.95;;;12.93;;
21611;SDS011;47005;52.292;13.452;2022-10-15T03:30:02;19.15;;;12.48;;
21611;SDS011;47005;52.292;13.452;2022-10-15T03:32:28;16.65;;;12.30;;
21611;SDS011;47005;52.292;13.452;2022-10-15T03:34:53;21.17;;;11.82;;
21611;SDS011;47005;52.292;13.452;2022-10-15T03:37:19;16.08;;;11.60;;
21611;SDS011;47005;52.292;13.452;2022-10-15T03:39:44;15.93;;;12.30;;
21611;SDS011;47005;52.292;13.452;2022-10-15T03:42:10;17.27;;;12.30;;
21611;SDS011;47005;52.292;13.452;2022-10-15T03:44:35;16.45;;;12.50;;
21611;SDS011;47005;52.292;13.452;2022-10-15T03:47:01;19.58;;;12.82;;
21611;SDS011;47005;52.292;13.452;2022-10-15T03:49:26;18.30;;;12.47;;
21611;SDS011;47005;52.292;13.452;2022-10-15T03:51:52;16.90;;;11.02;;
21611;SDS011;47005;52.292;13.452;2022-10-15T03:54:17;18.92;;;11.45;;
21611;SDS011;47005;52.292;13.452;2022-10-15T03:56:43;14.15;;;10.13;;
21611;SDS011;47005;52.292;13.452;2022-10-15T03:59:09;18.80;;;11.32;;
21611;SDS011;47005;52.292;13.452;2022-10-15T04:01:34;15.75;;;11.52;;
21611;SDS011;47005;52.292;13.452;2022-10-15T04:04:00;16.80;;;12.40;;
21611;SDS011;47005;52.292;13.452;2022-10-15T04:06:25;14.63;;;11.15;;
21611;SDS011;47005;52.292;13.452;2022-10-15T04:08:51;16.02;;;11.23;;
21611;SDS011;47005;52.292;13.452;2022-10-15T04:11:16;14.40;;;10.35;;
21611;SDS011;47005;52.292;13.452;2022-10-15T04:13:42;14.60;;;11.27;;
21611;SDS011;47005;52.292;13.452;2022-10-15T04:16:07;22.05;;;10.73;;
21611;SDS011;47005;52.292;13.452;2022-10-15T04:18:33;15.73;;;11.02;;
21611;SDS011;47005;52.292;13.452;2022-10-15T04:20:59;16.90;;;10.90;;
21611;SDS011;47005;52.292;13.452;2022-10-15T04:23:25;17.95;;;12.20;;
21611;SDS011;47005;52.292;13.452;2022-10-15T04:25:51;16.25;;;10.90;;
21611;SDS011;47005;52.292;13.452;2022-10-15T04:28:16;17.98;;;12.07;;
21611;SDS011;47005;52.292;13.452;2022-10-15T04:30:42;14.93;;;10.13;;
21611;SDS011;47005;52.292;13.452;2022-10-15T04:33:08;13.93;;;11.00;;
21611;SDS011;47005;52.292;13.452;2022-10-15T04:35:34;15.13;;;11.07;;
21611;SDS011;47005;52.292;13.452;2022-10-15T04:38:00;15.75;;;10.43;;
21611;SDS011;47005;52.292;13.452;2022-10-15T04:40:26;14.13;;;10.05;;
21611;SDS011;47005;52.292;13.452;2022-10-15T04:42:52;19.42;;;11.07;;
21611;SDS011;47005;52.292;13.452;2022-10-15T04:45:17;14.43;;;11.20;;
21611;SDS011;47005;52.292;13.452;2022-10-15T04:47:43;15.60;;;11.30;;
21611;SDS011;47005;52.292;13.452;2022-10-15T04:50:09;13.48;;;10.00;;
21611;SDS011;47005;52.292;13.452;2022-10-15T04:52:35;13.07;;;9.65;;
21611;SDS011;47005;52.292;13.452;2022-10-15T04:55:01;13.73;;;9.68;;
21611;SDS011;47005;52.292;13.452;2022-10-15T04:57:28;13.70;;;10.00;;
21611;SDS011;47005;52.292;13.452;2022-10-15T04:59:55;14.32;;;9.98;;
21611;SDS011;47005;52.292;13.452;2022-10-15T05:02:21;12.27;;;9.02;;
21611;SDS011;47005;52.292;13.452;2022-10-15T05:04:47;15.00;;;10.13;;
21611;SDS011;47005;52.292;13.452;2022-10-15T05:07:13;13.30;;;9.65;;
21611;SDS011;47005;52.292;13.452;2022-10-15T05:09:38;12.73;;;8.82;;
21611;SDS011;47005;52.292;13.452;2022-10-15T05:12:04;15.02;;;9.15;;
21611;SDS011;47005;52.292;13.452;2022-10-15T05:14:30;17.17;;;9.50;;
21611;SDS011;47005;52.292;13.452;2022-10-15T05:16:55;12.40;;;9.02;;
21611;SDS011;47005;52.292;13.452;2022-10-15T05:19:21;15.73;;;9.38;;
21611;SDS011;47005;52.292;13.452;2022-10-15T05:21:46;11.10;;;8.68;;
21611;SDS011;47005;52.292;13.452;2022-10-15T05:24:12;12.68;;;9.20;;
21611;SDS011;47005;52.292;13.452;2022-10-15T05:26:37;16.38;;;9.20;;
21611;SDS011;47005;52.292;13.452;2022-10-15T05:29:03;12.57;;;8.90;;
21611;SDS011;47005;52.292;13.452;2022-10-15T05:31:29;15.93;;;9.38;;
21611;SDS011;47005;52.292;13.452;2022-10-15T05:33:56;12.23;;;8.23;;
21611;SDS011;47005;52.292;13.452;2022-10-15T05:36:23;13.50;;;8.93;;
21611;SDS011;47005;52.292;13.452;2022-10-15T05:38:51;12.07;;;7.93;;
21611;SDS011;47005;52.292;13.452;2022-10-15T05:41:21;11.68;;;8.43;;
21611;SDS011;47005;52.292;13.452;2022-10-15T05:43:48;12.13;;;8.17;;
21611;SDS011;47005;52.292;13.452;2022-10-15T05:46:15;12.43;;;8.32;;
21611;SDS011;47005;52.292;13.452;2022-10-15T05:48:41;12.87;;;9.13;;
21611;SDS011;47005;52.292;13.452;2022-10-15T05:51:07;12.37;;;9.27;;
21611;SDS011;47005;52.292;13.452;2022-10-15T05:53:36;13.85;;;9.48;;
21611;SDS011;47005;52.292;13.452;2022-10-15T05:56:02;16.20;;;8.65;;
21611;SDS011;47005;52.292;13.452;2022-10-15T05:58:29;12.70;;;8.77;;
21611;SDS011;47005;52.292;13.452;2022-10-15T06:00:57;15.43;;;9.53;;
21611;SDS011;47005;52.292;13.452;2022-10-15T06:03:24;13.40;;;9.05;;
21611;SDS011;47005;52.292;13.452;2022-10-15T06:05:51;14.82;;;8.82;;
21611;SDS011;47005;52.292;13.452;2022-10-15T06:08:17;14.30;;;9.50;;
21611;SDS011;47005;52.292;13.452;2022-10-15T06:10:42;12.60;;;8.23;;
21611;SDS011;47005;52.292;13.452;2022-10-15T06:13:08;9.25;;;7.95;;
21611;SDS011;47005;52.292;13.452;2022-10-15T06:15:37;12.87;;;8.93;;
21611;SDS011;47005;52.292;13.452;2022-10-15T06:18:04;11.68;;;8.35;;
21611;SDS011;47005;52.292;13.452;2022-10-15T06:20:30;11.70;;;8.03;;
21611;SDS011;47005;52.292;13.452;2022-10-15T06:22:57;10.53;;;8.20;;
21611;SDS011;47005;52.292;13.452;2022-10-15T06:25:26;19.07;;;8.73;;
21611;SDS011;47005;52.292;13.452;2022-10-15T06:27:52;12.70;;;8.63;;
21611;SDS011;47005;52.292;13.452;2022-10-15T06:30:18;12.73;;;8.50;;
21611;SDS011;47005;52.292;13.452;2022-10-15T06:32:50;12.33;;;7.90;;
21611;SDS011;47005;52.292;13.452;2022-10-15T06:35:17;14.00;;;8.47;;
21611;SDS011;47005;52.292;13.452;2022-10-15T06:37:44;12.38;;;7.85;;
21611;SDS011;47005;52.292;13.452;2022-10-15T06:40:10;11.10;;;7.47;;
21611;SDS011;47005;52.292;13.452;2022-10-15T06:42:36;9.97;;;7.43;;
21611;SDS011;47005;52.292;13.452;2022-10-15T06:45:03;10.43;;;7.80;;
21611;SDS011;47005;52.292;13.452;2022-10-15T06:47:29;12.03;;;8.63;;
21611;SDS011;47005;52.292;13.452;2022-10-15T06:49:54;12.70;;;8.77;;
21611;SDS011;47005;52.292;13.452;2022-10-15T06:52:20;10.85;;;7.57;;
21611;SDS011;47005;52.292;13.452;2022-10-15T06:54:45;16.15;;;7.93;;
21611;SDS011;47005;52.292;13.452;2022-10-15T06:57:11;10.45;;;7.35;;
21611;SDS011;47005;52.292;13.452;2022-10-15T06:59:37;9.25;;;6.80;;
21611;SDS011;47005;52.292;13.452;2022-10-15T07:02:02;11.17;;;7.17;;
21611;SDS011;47005;52.292;13.452;2022-10-15T07:04:28;13.10;;;7.73;;
21611;SDS011;47005;52.292;13.452;2022-10-15T07:06:53;10.67;;;7.60;;
21611;SDS011;47005;52.292;13.452;2022-10-15T07:09:19;15.70;;;9.23;;
21611;SDS011;47005;52.292;13.452;2022-10-15T07:11:45;11.63;;;7.97;;
21611;SDS011;47005;52.292;13.452;2022-10-15T07:14:10;12.55;;;8.02;;
21611;SDS011;47005;52.292;13.452;2022-10-15T07:16:36;10.90;;;8.10;;
21611;SDS011;47005;52.292;13.452;2022-10-15T07:19:03;13.52;;;8.55;;
21611;SDS011;47005;52.292;13.452;2022-10-15T07:21:28;11.65;;;7.97;;
21611;SDS011;47005;52.292;13.452;2022-10-15T07:23:54;10.70;;;7.75;;
21611;SDS011;47005;52.292;13.452;2022-10-15T07:26:20;12.40;;;8.55;;
21611;SDS011;47005;52.292;13.452;2022-10-15T07:28:45;10.77;;;7.50;;
21611;SDS011;47005;52.292;13.452;2022-10-15T07:31:11;12.68;;;8.48;;
21611;SDS011;47005;52.292;13.452;2022-10-15T07:33:36;11.07;;;8.77;;
21611;SDS011;47005;52.292;13.452;2022-10-15T07:36:03;12.90;;;9.32;;
21611;SDS011;47005;52.292;13.452;2022-10-15T07:38:30;10.32;;;7.68;;
21611;SDS011;47005;52.292;13.452;2022-10-15T07:40:56;11.07;;;8.02;;
21611;SDS011;47005;52.292;13.452;2022-10-15T07:43:23;12.02;;;7.32;;
21611;SDS011;47005;52.292;13.452;2022-10-15T07:45:48;12.88;;;7.85;;
21611;SDS011;47005;52.292;13.452;2022-10-15T07:48:14;10.55;;;7.43;;
21611;SDS011;47005;52.292;13.452;2022-10-15T07:50:40;12.30;;;7.97;;
21611;SDS011;47005;52.292;13.452;2022-10-15T07:53:05;9.02;;;7.03;;
21611;SDS011;47005;52.292;13.452;2022-10-15T07:55:31;16.25;;;7.43;;
21611;SDS011;47005;52.292;13.452;2022-10-15T07:57:57;9.48;;;6.78;;
21611;SDS011;47005;52.292;13.452;2022-10-15T08:00:23;9.50;;;7.03;;
21611;SDS011;47005;52.292;13.452;2022-10-15T08:02:48;12.40;;;7.75;;
21611;SDS011;47005;52.292;13.452;2022-10-15T08:05:14;10.32;;;6.65;;
21611;SDS011;47005;52.292;13.452;2022-10-15T08:07:39;12.63;;;7.53;;
21611;SDS011;47005;52.292;13.452;2022-10-15T08:10:06;13.77;;;8.95;;
21611;SDS011;47005;52.292;13.452;2022-10-15T08:12:33;12.10;;;8.25;;
21611;SDS011;47005;52.292;13.452;2022-10-15T08:14:58;8.88;;;6.05;;
21611;SDS011;47005;52.292;13.452;2022-10-15T08:17:24;11.27;;;5.72;;
21611;SDS011;47005;52.292;13.452;2022-10-15T08:19:49;8.48;;;5.43;;
21611;SDS011;47005;52.292;13.452;2022-10-15T08:22:15;8.93;;;5.97;;
21611;SDS011;47005;52.292;13.452;2022-10-15T08:24:40;11.18;;;5.55;;
21611;SDS011;47005;52.292;13.452;2022-10-15T08:27:06;8.85;;;6.00;;
21611;SDS011;47005;52.292;13.452;2022-10-15T08:29:31;11.32;;;6.38;;
21611;SDS011;47005;52.292;13.452;2022-10-15T08:31:57;7.60;;;5.22;;
21611;SDS011;47005;52.292;13.452;2022-10-15T08:34:23;7.70;;;5.82;;
21611;SDS011;47005;52.292;13.452;2022-10-15T08:36:49;9.35;;;5.68;;
21611;SDS011;47005;52.292;13.452;2022-10-15T08:39:14;7.55;;;4.97;;
21611;SDS011;47005;52.292;13.452;2022-10-15T08:41:41;7.10;;;4.78;;
21611;SDS011;47005;52.292;13.452;2022-10-15T08:44:20;8.27;;;4.82;;
21611;SDS011;47005;52.292;13.452;2022-10-15T08:46:53;6.13;;;4.47;;
21611;SDS011;47005;52.292;13.452;2022-10-15T08:50:11;8.10;;;5.28;;
21611;SDS011;47005;52.292;13.452;2022-10-15T08:52:24;6.18;;;4.50;;
21611;SDS011;47005;52.292;13.452;2022-10-15T08:54:57;6.35;;;4.68;;
21611;SDS011;47005;52.292;13.452;2022-10-15T08:58:10;5.78;;;4.13;;
21611;SDS011;47005;52.292;13.452;2022-10-15T09:00:22;6.40;;;4.07;;
21611;SDS011;47005;52.292;13.452;2022-10-15T09:02:56;6.55;;;3.97;;
21611;SDS011;47005;52.292;13.452;2022-10-15T09:08:20;7.35;;;4.72;;
21611;SDS011;47005;52.292;13.452;2022-10-15T09:13:43;6.60;;;4.60;;
21611;SDS011;47005;52.292;13.452;2022-10-15T09:16:26;6.95;;;4.35;;
21611;SDS011;47005;52.292;13.452;2022-10-15T09:18:56;5.35;;;3.85;;
21611;SDS011;47005;52.292;13.452;2022-10-15T09:21:26;7.00;;;3.88;;
21611;SDS011;47005;52.292;13.452;2022-10-15T09:23:54;6.10;;;3.90;;
21611;SDS011;47005;52.292;13.452;2022-10-15T09:26:38;7.72;;;4.55;;
21611;SDS011;47005;52.292;13.452;2022-10-15T09:32:07;6.47;;;3.80;;
21611;SDS011;47005;52.292;13.452;2022-10-15T09:34:50;5.68;;;3.33;;
21611;SDS011;47005;52.292;13.452;2022-10-15T09:37:27;3.63;;;2.25;;
21611;SDS011;47005;52.292;13.452;2022-10-15T09:43:01;7.45;;;3.20;;
21611;SDS011;47005;52.292;13.452;2022-10-15T09:45:28;5.30;;;3.63;;
21611;SDS011;47005;52.292;13.452;2022-10-15T09:47:58;7.20;;;3.80;;
21611;SDS011;47005;52.292;13.452;2022-10-15T09:50:26;6.82;;;3.03;;
21611;SDS011;47005;52.292;13.452;2022-10-15T09:53:03;5.10;;;3.30;;
21611;SDS011;47005;52.292;13.452;2022-10-15T09:58:03;6.35;;;3.90;;
21611;SDS011;47005;52.292;13.452;2022-10-15T10:03:18;5.47;;;3.80;;
21611;SDS011;47005;52.292;13.452;2022-10-15T10:05:46;7.15;;;4.07;;
21611;SDS011;47005;52.292;13.452;2022-10-15T10:08:16;6.15;;;3.83;;
21611;SDS011;47005;52.292;13.452;2022-10-15T10:10:53;5.63;;;3.40;;
21611;SDS011;47005;52.292;13.452;2022-10-15T10:14:05;5.47;;;3.55;;
21611;SDS011;47005;52.292;13.452;2022-10-15T10:16:11;6.95;;;4.38;;
21611;SDS011;47005;52.292;13.452;2022-10-15T10:18:38;4.55;;;3.65;;
21611;SDS011;47005;52.292;13.452;2022-10-15T10:21:05;6.90;;;3.33;;
21611;SDS011;47005;52.292;13.452;2022-10-15T10:23:45;5.53;;;3.38;;
21611;SDS011;47005;52.292;13.452;2022-10-15T10:26:10;5.40;;;3.88;;
21611;SDS011;47005;52.292;13.452;2022-10-15T10:28:45;6.38;;;3.25;;
21611;SDS011;47005;52.292;13.452;2022-10-15T10:31:14;4.93;;;3.28;;
21611;SDS011;47005;52.292;13.452;2022-10-15T10:33:46;8.98;;;4.05;;
21611;SDS011;47005;52.292;13.452;2022-10-15T10:36:18;4.85;;;3.40;;
21611;SDS011;47005;52.292;13.452;2022-10-15T10:44:28;5.72;;;4.20;;
21611;SDS011;47005;52.292;13.452;2022-10-15T10:52:27;5.53;;;3.90;;
21611;SDS011;47005;52.292;13.452;2022-10-15T10:54:57;7.95;;;3.75;;
21611;SDS011;47005;52.292;13.452;2022-10-15T10:58:05;5.93;;;4.25;;
21611;SDS011;47005;52.292;13.452;2022-10-15T11:00:21;11.48;;;4.53;;
21611;SDS011;47005;52.292;13.452;2022-10-15T11:02:59;4.32;;;2.83;;
21611;SDS011;47005;52.292;13.452;2022-10-15T11:05:25;4.80;;;3.35;;
21611;SDS011;47005;52.292;13.452;2022-10-15T11:16:00;5.35;;;3.80;;
21611;SDS011;47005;52.292;13.452;2022-10-15T11:21:06;6.05;;;4.63;;
21611;SDS011;47005;52.292;13.452;2022-10-15T11:29:35;10.13;;;4.45;;
21611;SDS011;47005;52.292;13.452;2022-10-15T11:40:29;6.55;;;4.72;;
21611;SDS011;47005;52.292;13.452;2022-10-15T11:43:05;6.72;;;4.03;;
21611;SDS011;47005;52.292;13.452;2022-10-15T11:51:07;13.15;;;4.20;;
21611;SDS011;47005;52.292;13.452;2022-10-15T11:54:20;5.07;;;3.17;;
21611;SDS011;47005;52.292;13.452;2022-10-15T11:56:49;4.65;;;3.58;;
21611;SDS011;47005;52.292;13.452;2022-10-15T11:59:23;5.90;;;3.38;;
21611;SDS011;47005;52.292;13.452;2022-10-15T12:02:08;4.63;;;3.08;;
21611;SDS011;47005;52.292;13.452;2022-10-15T12:07:14;5.03;;;2.50;;
21611;SDS011;47005;52.292;13.452;2022-10-15T12:09:45;3.30;;;2.47;;
21611;SDS011;47005;52.292;13.452;2022-10-15T12:14:46;2.95;;;2.10;;
21611;SDS011;47005;52.292;13.452;2022-10-15T12:19:51;6.18;;;2.13;;
21611;SDS011;47005;52.292;13.452;2022-10-15T12:22:39;2.80;;;1.77;;
21611;SDS011;47005;52.292;13.452;2022-10-15T12:28:03;5.07;;;2.00;;
21611;SDS011;47005;52.292;13.452;2022-10-15T12:30:37;2.67;;;1.80;;
21611;SDS011;47005;52.292;13.452;2022-10-15T12:33:20;3.45;;;1.60;;
21611;SDS011;47005;52.292;13.452;2022-10-15T12:35:54;2.67;;;1.45;;
21611;SDS011;47005;52.292;13.452;2022-10-15T12:38:30;2.50;;;1.55;;
21611;SDS011;47005;52.292;13.452;2022-10-15T12:40:59;2.83;;;1.70;;
21611;SDS011;47005;52.292;13.452;2022-10-15T12:43:28;2.88;;;1.63;;
21611;SDS011;47005;52.292;13.452;2022-10-15T12:45:56;4.45;;;1.60;;
21611;SDS011;47005;52.292;13.452;2022-10-15T12:53:41;3.25;;;1.58;;
21611;SDS011;47005;52.292;13.452;2022-10-15T13:03:40;2.30;;;1.60;;
21611;SDS011;47005;52.292;13.452;2022-10-15T13:08:44;3.70;;;1.98;;
21611;SDS011;47005;52.292;13.452;2022-10-15T13:16:54;2.50;;;1.73;;
21611;SDS011;47005;52.292;13.452;2022-10-15T13:19:22;2.88;;;1.70;;
21611;SDS011;47005;52.292;13.452;2022-10-15T13:22:02;2.80;;;1.70;;
21611;SDS011;47005;52.292;13.452;2022-10-15T13:24:37;3.88;;;1.88;;
21611;SDS011;47005;52.292;13.452;2022-10-15T13:27:12;3.15;;;1.85;;
21611;SDS011;47005;52.292;13.452;2022-10-15T13:29:44;5.95;;;2.28;;
21611;SDS011;47005;52.292;13.452;2022-10-15T13:32:21;4.20;;;1.92;;
21611;SDS011;47005;52.292;13.452;2022-10-15T13:34:47;2.90;;;1.90;;
21611;SDS011;47005;52.292;13.452;2022-10-15T13:37:18;2.45;;;1.67;;
21611;SDS011;47005;52.292;13.452;2022-10-15T13:39:48;2.85;;;1.98;;
21611;SDS011;47005;52.292;13.452;2022-10-15T13:42:16;3.17;;;1.98;;
21611;SDS011;47005;52.292;13.452;2022-10-15T13:44:43;2.95;;;1.80;;
21611;SDS011;47005;52.292;13.452;2022-10-15T13:52:51;6.35;;;2.15;;
21611;SDS011;47005;52.292;13.452;2022-10-15T13:55:29;3.03;;;2.05;;
21611;SDS011;47005;52.292;13.452;2022-10-15T14:00:50;3.15;;;1.90;;
21611;SDS011;47005;52.292;13.452;2022-10-15T14:03:24;3.03;;;1.92;;
21611;SDS011;47005;52.292;13.452;2022-10-15T14:05:51;3.08;;;1.88;;
21611;SDS011;47005;52.292;13.452;2022-10-15T14:08:22;4.75;;;2.00;;
21611;SDS011;47005;52.292;13.452;2022-10-15T14:10:51;5.03;;;2.45;;
21611;SDS011;47005;52.292;13.452;2022-10-15T14:13:18;4.00;;;2.33;;
21611;SDS011;47005;52.292;13.452;2022-10-15T14:18:12;4.68;;;2.20;;
21611;SDS011;47005;52.292;13.452;2022-10-15T14:20:42;5.03;;;2.75;;
21611;SDS011;47005;52.292;13.452;2022-10-15T14:23:15;5.25;;;2.30;;
21611;SDS011;47005;52.292;13.452;2022-10-15T14:25:50;4.47;;;2.20;;
21611;SDS011;47005;52.292;13.452;2022-10-15T14:28:20;17.27;;;2.42;;
21611;SDS011;47005;52.292;13.452;2022-10-15T14:30:47;7.13;;;2.78;;
21611;SDS011;47005;52.292;13.452;2022-10-15T14:36:07;4.05;;;2.28;;
21611;SDS011;47005;52.292;13.452;2022-10-15T14:38:38;4.22;;;2.30;;
21611;SDS011;47005;52.292;13.452;2022-10-15T14:46:34;2.88;;;2.03;;
21611;SDS011;47005;52.292;13.452;2022-10-15T14:49:02;7.25;;;2.63;;
21611;SDS011;47005;52.292;13.452;2022-10-15T14:51:28;6.80;;;2.63;;
21611;SDS011;47005;52.292;13.452;2022-10-15T14:53:53;3.65;;;2.40;;
21611;SDS011;47005;52.292;13.452;2022-10-15T14:56:23;6.03;;;2.75;;
21611;SDS011;47005;52.292;13.452;2022-10-15T14:58:54;3.38;;;2.13;;
21611;SDS011;47005;52.292;13.452;2022-10-15T15:01:21;2.80;;;2.05;;
21611;SDS011;47005;52.292;13.452;2022-10-15T15:03:49;3.70;;;2.30;;
21611;SDS011;47005;52.292;13.452;2022-10-15T15:06:19;5.78;;;2.20;;
21611;SDS011;47005;52.292;13.452;2022-10-15T15:08:45;3.30;;;2.00;;
21611;SDS011;47005;52.292;13.452;2022-10-15T15:11:21;2.83;;;1.98;;
21611;SDS011;47005;52.292;13.452;2022-10-15T15:13:49;2.80;;;1.98;;
21611;SDS011;47005;52.292;13.452;2022-10-15T15:16:16;3.72;;;2.47;;
21611;SDS011;47005;52.292;13.452;2022-10-15T15:18:42;3.10;;;2.13;;
21611;SDS011;47005;52.292;13.452;2022-10-15T15:21:13;4.22;;;2.35;;
21611;SDS011;47005;52.292;13.452;2022-10-15T15:23:43;3.20;;;2.20;;
21611;SDS011;47005;52.292;13.452;2022-10-15T15:26:09;4.07;;;2.63;;
21611;SDS011;47005;52.292;13.452;2022-10-15T15:28:35;5.32;;;2.15;;
21611;SDS011;47005;52.292;13.452;2022-10-15T15:31:02;3.72;;;2.35;;
21611;SDS011;47005;52.292;13.452;2022-10-15T15:33:31;3.88;;;2.40;;
21611;SDS011;47005;52.292;13.452;2022-10-15T15:36:01;4.65;;;2.45;;
21611;SDS011;47005;52.292;13.452;2022-10-15T15:38:31;3.25;;;2.53;;
21611;SDS011;47005;52.292;13.452;2022-10-15T15:41:02;5.00;;;2.95;;
21611;SDS011;47005;52.292;13.452;2022-10-15T15:43:37;4.85;;;2.63;;
21611;SDS011;47005;52.292;13.452;2022-10-15T15:46:03;5.00;;;3.25;;
21611;SDS011;47005;52.292;13.452;2022-10-15T15:48:29;7.35;;;3.88;;
21611;SDS011;47005;52.292;13.452;2022-10-15T15:50:55;4.88;;;3.58;;
21611;SDS011;47005;52.292;13.452;2022-10-15T15:53:31;5.53;;;4.05;;
21611;SDS011;47005;52.292;13.452;2022-10-15T15:55:57;9.15;;;5.63;;
21611;SDS011;47005;52.292;13.452;2022-10-15T15:58:22;6.10;;;4.30;;
21611;SDS011;47005;52.292;13.452;2022-10-15T16:00:48;7.35;;;5.38;;
21611;SDS011;47005;52.292;13.452;2022-10-15T16:03:14;8.57;;;5.68;;
21611;SDS011;47005;52.292;13.452;2022-10-15T16:05:39;7.95;;;5.28;;
21611;SDS011;47005;52.292;13.452;2022-10-15T16:08:06;9.10;;;6.15;;
21611;SDS011;47005;52.292;13.452;2022-10-15T16:10:34;9.00;;;5.40;;
21611;SDS011;47005;52.292;13.452;2022-10-15T16:13:00;9.07;;;5.70;;
21611;SDS011;47005;52.292;13.452;2022-10-15T16:15:26;11.63;;;6.95;;
21611;SDS011;47005;52.292;13.452;2022-10-15T16:17:52;11.00;;;7.40;;
21611;SDS011;47005;52.292;13.452;2022-10-15T16:20:18;8.07;;;5.93;;
21611;SDS011;47005;52.292;13.452;2022-10-15T16:22:47;9.43;;;7.03;;
21611;SDS011;47005;52.292;13.452;2022-10-15T16:25:16;19.77;;;10.02;;
21611;SDS011;47005;52.292;13.452;2022-10-15T16:27:42;10.98;;;9.43;;
21611;SDS011;47005;52.292;13.452;2022-10-15T16:30:12;13.50;;;10.82;;
21611;SDS011;47005;52.292;13.452;2022-10-15T16:32:38;15.18;;;10.00;;
21611;SDS011;47005;52.292;13.452;2022-10-15T16:35:04;13.90;;;11.30;;
21611;SDS011;47005;52.292;13.452;2022-10-15T16:37:30;13.05;;;10.35;;
21611;SDS011;47005;52.292;13.452;2022-10-15T16:39:55;13.45;;;9.73;;
21611;SDS011;47005;52.292;13.452;2022-10-15T16:42:21;14.27;;;9.68;;
21611;SDS011;47005;52.292;13.452;2022-10-15T16:44:46;15.50;;;11.07;;
21611;SDS011;47005;52.292;13.452;2022-10-15T16:47:12;20.05;;;12.15;;
21611;SDS011;47005;52.292;13.452;2022-10-15T16:49:37;18.10;;;11.60;;